Time;durP1;ratioP1;P1;durP2;ratioP2;P2;SDS_P1;SDS_P2;PMS_P1;PMS_P2;Temp;Humidity;BMP_temperature;BMP_pressure;BME280_temperature;BME280_humidity;BME280_pressure;Samples;Min_cycle;Max_cycle;Signal;HPM_P1;HPM_P2
2022/12/27 00:01:33;;;;;;;12.00;7.30;;;;;;;3.90;87.31;98691.15;102251;1299;75837;-24
2022/12/27 00:04:00;;;;;;;7.90;6.10;;;;;;;3.62;88.28;98694.14;101350;1299;1402047;-24
2022/12/27 00:06:27;;;;;;;11.10;6.30;;;;;;;3.59;88.93;98688.19;102300;1298;61157;-23
2022/12/27 00:08:55;;;;;;;9.80;7.00;;;;;;;3.81;88.64;98681.56;102266;1297;62682;-24
2022/12/27 00:11:24;;;;;;;9.40;6.80;;;;;;;4.08;87.89;98682.34;102203;1291;76101;-25
2022/12/27 00:13:51;;;;;;;10.10;6.40;;;;;;;3.85;87.99;98682.21;102018;1298;77018;-24
2022/12/27 00:16:19;;;;;;;8.20;6.00;;;;;;;3.69;88.86;98681.73;102277;1299;73513;-22
2022/12/27 00:18:48;;;;;;;10.20;5.70;;;;;;;3.87;88.87;98682.92;102089;1295;61902;-22
2022/12/27 00:21:15;;;;;;;12.90;8.20;;;;;;;4.21;87.87;98678.48;102271;1299;62610;-22
2022/12/27 00:23:47;;;;;;;9.90;6.50;;;;;;;4.31;87.17;98673.44;102253;1291;76369;-22
2022/12/27 00:26:15;;;;;;;8.60;5.20;;;;;;;4.00;88.18;98661.21;101972;1299;76528;-22
2022/12/27 00:28:42;;;;;;;10.30;6.70;;;;;;;4.02;88.96;98665.92;102281;1292;75081;-22
2022/12/27 00:31:09;;;;;;;9.00;6.50;;;;;;;4.37;87.99;98665.15;102069;1292;61991;-22
2022/12/27 00:33:37;;;;;;;11.10;7.20;;;;;;;4.51;87.09;98663.95;102098;1301;61877;-22
2022/12/27 00:36:06;;;;;;;11.60;7.00;;;;;;;4.37;87.13;98667.37;102245;1291;76722;-22
2022/12/27 00:38:33;;;;;;;8.50;5.70;;;;;;;4.18;87.66;98662.49;102032;1293;76735;-22
2022/12/27 00:41:00;;;;;;;6.80;5.20;;;;;;;4.19;88.34;98658.32;102312;1299;74116;-22
2022/12/27 00:43:27;;;;;;;8.90;6.30;;;;;;;4.36;88.01;98661.48;102292;1292;61368;-22
2022/12/27 00:45:54;;;;;;;12.10;6.90;;;;;;;4.50;87.47;98660.91;102203;1298;61740;-22
2022/12/27 00:48:22;;;;;;;12.30;7.70;;;;;;;4.44;87.53;98658.36;102164;1299;75409;-23
2022/12/27 00:50:49;;;;;;;10.40;6.70;;;;;;;4.21;88.28;98654.98;102160;1298;75778;-24
2022/12/27 00:53:16;;;;;;;10.60;7.30;;;;;;;4.47;88.14;98654.06;102265;1291;75170;-22
2022/12/27 00:55:43;;;;;;;11.30;6.70;;;;;;;4.64;87.11;98654.23;102320;1296;62879;-23
2022/12/27 00:58:10;;;;;;;11.50;7.50;;;;;;;4.57;86.86;98644.98;102258;1298;61956;-23
2022/12/27 01:00:37;;;;;;;8.40;6.10;;;;;;;4.30;87.85;98640.33;102239;1299;76292;-23
2022/12/27 01:03:04;;;;;;;9.70;6.80;;;;;;;4.43;88.32;98638.48;102233;1291;75878;-23
2022/12/27 01:05:31;;;;;;;12.50;7.60;;;;;;;4.79;86.83;98641.20;102207;1295;74196;-23
2022/12/27 01:07:58;;;;;;;13.20;8.20;;;;;;;4.84;86.23;98643.80;102110;1299;61480;-23
2022/12/27 01:10:25;;;;;;;11.80;8.10;;;;;;;4.67;86.67;98637.98;102278;1299;61096;-23
2022/12/27 01:12:52;;;;;;;9.40;5.90;;;;;;;4.37;87.80;98635.77;102265;1302;75290;-23
2022/12/27 01:15:19;;;;;;;10.30;7.00;;;;;;;4.56;88.11;98637.16;102358;1291;76793;-23
2022/12/27 01:17:46;;;;;;;12.00;6.80;;;;;;;4.72;87.38;98630.29;102336;1298;75172;-23
2022/12/27 01:20:13;;;;;;;11.70;7.40;;;;;;;4.76;87.49;98634.38;102265;1302;61575;-23
2022/12/27 01:22:40;;;;;;;9.80;6.60;;;;;;;4.64;87.72;98630.27;102331;1299;62774;-23
2022/12/27 01:25:07;;;;;;;10.70;7.10;;;;;;;4.46;88.99;98620.05;102327;1295;76363;-23
2022/12/27 01:27:34;;;;;;;9.70;6.50;;;;;;;4.86;87.99;98625.63;102284;1299;76405;-22
2022/12/27 01:31:11;;;;;;;10.40;7.00;;;;;;;5.07;87.00;98614.80;98960;1326;616287;-21
2022/12/27 01:33:39;;;;;;;10.90;6.70;;;;;;;4.86;87.48;98621.84;101247;1314;61256;-21
2022/12/27 01:36:13;;;;;;;9.10;5.20;;;;;;;4.59;88.83;98617.52;101378;1310;61117;-21
2022/12/27 01:38:43;;;;;;;10.70;6.90;;;;;;;4.96;88.81;98612.92;101371;1303;73774;-24
2022/12/27 01:43:59;;;;;;;11.80;6.50;;;;;;;5.21;86.69;98610.47;100494;1309;1328477;-24
2022/12/27 01:46:26;;;;;;;10.20;5.50;;;;;;;4.89;87.77;98612.53;101633;1309;61659;-25
2022/12/27 01:48:54;;;;;;;9.80;6.10;;;;;;;5.08;88.13;98622.50;101544;1309;62233;-22
2022/12/27 01:51:21;;;;;;;11.30;6.30;;;;;;;5.46;86.87;98615.55;101445;1307;73800;-22
2022/12/27 01:53:48;;;;;;;11.30;6.70;;;;;;;5.42;86.58;98607.52;101582;1307;75840;-22
2022/12/27 01:56:26;;;;;;;10.40;7.10;;;;;;;5.36;86.57;98607.95;101604;1301;74352;-22
2022/12/27 01:59:00;;;;;;;11.30;6.30;;;;;;;5.13;86.97;98603.40;101613;1309;61099;-22
2022/12/27 02:01:30;;;;;;;10.40;6.30;;;;;;;5.29;87.25;98592.70;101541;1311;61952;-22
2022/12/27 02:04:00;;;;;;;8.80;5.10;;;;;;;5.74;86.23;98598.14;101396;1303;74376;-22
2022/12/27 02:06:31;;;;;;;7.60;6.20;;;;;;;5.80;85.56;98593.92;101320;1311;75784;-22
2022/12/27 02:09:17;;;;;;;11.70;6.30;;;;;;;5.57;85.83;98590.54;101660;1303;74220;-22
2022/12/27 02:11:54;;;;;;;8.70;5.70;;;;;;;5.31;86.46;98588.46;101601;1306;61710;-22
2022/12/27 02:14:26;;;;;;;9.10;4.90;;;;;;;5.35;87.14;98583.71;101708;1305;61145;-21
2022/12/27 02:16:59;;;;;;;9.90;6.70;;;;;;;5.73;86.38;98586.84;101732;1301;74577;-21
2022/12/27 02:19:37;;;;;;;10.50;6.70;;;;;;;5.87;85.66;98591.61;101837;1298;75762;-21
2022/12/27 02:22:17;;;;;;;11.10;6.90;;;;;;;5.69;85.87;98589.20;101704;1301;74287;-19
2022/12/27 02:24:47;;;;;;;6.90;4.80;;;;;;;5.44;86.67;98587.27;101835;1301;61063;-19
2022/12/27 02:27:44;;;;;;;9.90;5.90;;;;;;;5.62;87.11;98586.58;101816;1298;62054;-19
2022/12/27 02:30:12;;;;;;;7.90;4.90;;;;;;;6.10;85.43;98586.41;101743;1307;74463;-19
2022/12/27 02:32:41;;;;;;;13.50;7.30;;;;;;;6.05;85.07;98581.03;101819;1301;75722;-19
2022/12/27 02:35:26;;;;;;;10.70;6.10;;;;;;;5.86;85.28;98589.59;101830;1305;74426;-20
2022/12/27 02:38:05;;;;;;;8.20;5.20;;;;;;;5.61;85.91;98590.21;101884;1305;63837;-19
2022/12/27 02:53:04;;;;;;;9.70;5.90;;;;;;;5.72;86.64;98584.14;101959;1302;63609;-19
2022/12/27 02:58:51;;;;;;;9.80;6.50;;;;;;;6.18;84.84;98577.73;101918;1302;74608;-19
2022/12/27 03:04:29;;;;;;;11.00;6.20;;;;;;;5.72;86.36;98581.40;102006;1300;74495;-19
2022/12/27 03:07:08;;;;;;;9.40;5.70;;;;;;;6.19;85.91;98580.80;101944;1296;61926;-20
2022/12/27 03:16:11;;;;;;;6.70;4.00;;;;;;;5.79;86.13;98574.23;102056;1303;75851;-19
2022/12/27 03:18:58;;;;;;;9.90;6.00;;;;;;;5.89;86.81;98567.10;101965;1305;74249;-19
2022/12/27 03:27:27;;;;;;;11.70;7.10;;;;;;;6.09;85.59;98542.84;102390;1291;74620;-22
2022/12/27 03:35:37;;;;;;;9.80;6.10;;;;;;;6.42;84.97;98553.08;102355;1298;61792;-22
2022/12/27 03:38:04;;;;;;;10.00;6.50;;;;;;;6.31;84.88;98553.01;102182;1294;61816;-21
2022/12/27 03:43:30;;;;;;;9.10;5.90;;;;;;;5.88;86.73;98559.98;102324;1290;75816;-21
2022/12/27 03:49:10;;;;;;;9.00;5.70;;;;;;;6.57;84.63;98558.76;102320;1298;61819;-21
2022/12/27 03:51:41;;;;;;;9.40;5.60;;;;;;;6.35;84.86;98559.17;102246;1302;61864;-21
2022/12/27 03:54:12;;;;;;;9.30;5.80;;;;;;;6.13;85.50;98563.08;102327;1298;74621;-19
2022/12/27 03:56:41;;;;;;;8.70;6.10;;;;;;;5.99;86.63;98559.70;102274;1291;74952;-19
2022/12/27 03:59:09;;;;;;;8.30;5.80;;;;;;;6.41;85.75;98558.88;102306;1298;74424;-19
2022/12/27 04:01:36;;;;;;;8.80;5.70;;;;;;;6.53;84.76;98557.36;102339;1299;61894;-19
2022/12/27 04:04:03;;;;;;;8.90;5.80;;;;;;;6.40;84.68;98559.64;102392;1298;61693;-19
2022/12/27 04:06:32;;;;;;;9.70;6.30;;;;;;;6.22;85.37;98557.14;102356;1298;74529;-19
2022/12/27 04:36:40;;;;;;;9.80;6.10;;;;;;;6.01;86.78;98564.11;102349;1299;75638;-20
2022/12/27 04:39:07;;;;;;;11.40;6.20;;;;;;;6.41;86.14;98560.27;102378;1294;74274;-20
2022/12/27 04:55:28;;;;;;;8.30;5.60;;;;;;;6.70;85.18;98554.40;102362;1292;61604;-21
2022/12/27 04:57:56;;;;;;;13.00;7.00;;;;;;;6.67;84.71;98550.61;102281;1298;61996;-20
2022/12/27 05:03:18;;;;;;;9.30;6.00;;;;;;;6.16;86.29;98554.95;102271;1301;74669;-21
2022/12/27 05:05:45;;;;;;;10.90;6.00;;;;;;;6.23;86.88;98556.02;102261;1298;74191;-20
2022/12/27 05:13:59;;;;;;;10.20;6.70;;;;;;;6.59;84.80;98562.23;102331;1291;73542;-23
2022/12/27 05:16:27;;;;;;;15.10;7.20;;;;;;;6.33;85.54;98563.58;102293;1302;75803;-23
2022/12/27 05:18:54;;;;;;;9.00;6.20;;;;;;;6.17;86.41;98566.42;102347;1298;74237;-21
2022/12/27 05:21:22;;;;;;;7.90;5.20;;;;;;;6.56;86.04;98563.30;102356;1299;62081;-24
2022/12/27 05:26:37;;;;;;;9.60;6.70;;;;;;;6.87;83.71;98571.44;102360;1298;74499;-21
2022/12/27 05:29:05;;;;;;;9.20;6.60;;;;;;;6.60;84.59;98570.65;102415;1297;75506;-20
2022/12/27 05:31:32;;;;;;;9.60;6.50;;;;;;;6.34;85.51;98571.28;102371;1295;74436;-20
2022/12/27 05:34:00;;;;;;;8.70;6.00;;;;;;;6.24;86.45;98570.60;102379;1297;63439;-20
2022/12/27 05:36:27;;;;;;;10.60;6.40;;;;;;;6.68;85.70;98564.16;102375;1298;61707;-21
2022/12/27 05:38:55;;;;;;;10.50;7.00;;;;;;;6.77;84.59;98563.54;102377;1290;73321;-21
2022/12/27 05:41:22;;;;;;;9.70;6.70;;;;;;;6.66;84.82;98560.02;102370;1298;75041;-20
2022/12/27 05:43:49;;;;;;;12.40;7.00;;;;;;;6.42;85.48;98560.89;102367;1298;74442;-21
2022/12/27 05:46:18;;;;;;;8.40;6.00;;;;;;;6.19;86.64;98562.52;102342;1292;63641;-20
2022/12/27 05:48:45;;;;;;;12.30;6.40;;;;;;;6.47;86.44;98560.48;102357;1298;61848;-21
2022/12/27 05:51:17;;;;;;;10.70;6.40;;;;;;;6.82;84.86;98557.95;102376;1298;74523;-21
2022/12/27 05:53:45;;;;;;;11.20;7.30;;;;;;;6.75;84.46;98549.84;102327;1295;75775;-21
2022/12/27 05:56:14;;;;;;;12.30;7.40;;;;;;;6.56;85.02;98549.14;102398;1298;74515;-21
2022/12/27 05:58:41;;;;;;;9.80;6.10;;;;;;;6.31;86.00;98550.29;102286;1302;62185;-21
2022/12/27 06:01:10;;;;;;;9.10;6.70;;;;;;;6.13;87.22;98546.05;102351;1292;62859;-21
2022/12/27 06:03:37;;;;;;;9.20;5.80;;;;;;;6.49;86.70;98541.52;102277;1302;75206;-21
2022/12/27 06:06:04;;;;;;;9.80;6.70;;;;;;;6.81;85.20;98541.02;102345;1294;75886;-21
2022/12/27 06:08:34;;;;;;;11.80;7.30;;;;;;;6.71;85.07;98538.95;102346;1291;73161;-22
2022/12/27 06:11:06;;;;;;;11.50;6.90;;;;;;;6.46;86.16;98540.04;102305;1298;61755;-22
2022/12/27 06:13:33;;;;;;;11.30;7.10;;;;;;;6.26;86.86;98538.22;102329;1293;61172;-21
2022/12/27 06:16:00;;;;;;;10.30;6.50;;;;;;;6.19;87.74;98541.61;102405;1297;75477;-22
2022/12/27 06:18:28;;;;;;;10.80;7.20;;;;;;;6.65;86.76;98540.45;102382;1298;75570;-22
2022/12/27 06:21:06;;;;;;;12.00;6.90;;;;;;;6.81;85.43;98543.93;102339;1298;73923;-21
2022/12/27 06:23:34;;;;;;;11.30;7.30;;;;;;;6.65;85.75;98542.64;102351;1298;61886;-21
2022/12/27 06:26:07;;;;;;;11.70;7.70;;;;;;;6.45;86.46;98550.67;102337;1297;61720;-21
2022/12/27 06:28:33;;;;;;;7.50;4.90;;;;;;;6.19;87.77;98555.80;102303;1293;73282;-22
2022/12/27 06:31:00;;;;;;;12.00;6.90;;;;;;;6.48;87.48;98558.91;102329;1298;75632;-22
2022/12/27 06:33:28;;;;;;;15.80;7.60;;;;;;;6.80;85.86;98556.08;102384;1290;74205;-21
2022/12/27 06:35:55;;;;;;;11.90;7.40;;;;;;;6.81;85.30;98558.45;102307;1298;61795;-21
2022/12/27 06:38:24;;;;;;;10.80;6.80;;;;;;;6.61;85.74;98561.42;102401;1297;61764;-21
2022/12/27 06:40:51;;;;;;;12.20;7.80;;;;;;;6.42;86.50;98563.64;102319;1293;75533;-22
2022/12/27 06:43:18;;;;;;;11.40;6.60;;;;;;;6.25;87.37;98566.23;102314;1290;75653;-21
2022/12/27 06:45:55;;;;;;;11.00;7.00;;;;;;;6.63;86.92;98569.04;102311;1291;74037;-21
2022/12/27 06:48:22;;;;;;;11.30;6.70;;;;;;;6.96;85.33;98572.14;102250;1294;61920;-21
2022/12/27 06:50:49;;;;;;;12.60;7.30;;;;;;;6.91;85.04;98573.73;102395;1290;61852;-21
2022/12/27 06:53:17;;;;;;;12.90;7.70;;;;;;;6.75;85.36;98577.13;102300;1290;75518;-21
2022/12/27 06:55:47;;;;;;;11.60;7.10;;;;;;;6.55;86.12;98572.73;102341;1298;75785;-21
2022/12/27 06:58:14;;;;;;;9.70;6.30;;;;;;;6.51;86.71;98572.45;102316;1296;72798;-21
2022/12/27 07:00:43;;;;;;;11.40;8.10;;;;;;;7.03;85.70;98575.91;102377;1291;61056;-21
2022/12/27 07:03:10;;;;;;;11.20;7.20;;;;;;;7.28;84.61;98565.66;102305;1291;62823;-25
2022/12/27 07:05:37;;;;;;;13.50;8.10;;;;;;;7.22;84.39;98557.29;102333;1297;75436;-21
2022/12/27 07:08:04;;;;;;;12.80;8.40;;;;;;;7.01;84.94;98557.30;102371;1298;74668;-22
2022/12/27 07:10:32;;;;;;;12.40;7.40;;;;;;;6.80;85.57;98553.27;102372;1291;74161;-21
2022/12/27 07:13:01;;;;;;;10.60;6.50;;;;;;;6.75;86.21;98546.02;102349;1298;63465;-21
2022/12/27 07:15:29;;;;;;;12.40;7.20;;;;;;;7.33;85.66;98541.91;102367;1290;61115;-22
2022/12/27 07:17:56;;;;;;;12.10;7.10;;;;;;;7.64;84.24;98542.70;102371;1291;75408;-21
2022/12/27 07:20:23;;;;;;;12.80;7.80;;;;;;;7.60;84.03;98547.13;102396;1298;75827;-22
2022/12/27 07:22:50;;;;;;;14.50;9.10;;;;;;;7.46;84.41;98544.09;102308;1298;74246;-21
2022/12/27 07:25:17;;;;;;;11.20;6.60;;;;;;;7.27;84.86;98537.91;102333;1298;61946;-21
2022/12/27 07:27:44;;;;;;;10.60;6.60;;;;;;;7.33;85.48;98540.56;102361;1289;61711;-21
2022/12/27 07:30:12;;;;;;;12.80;7.40;;;;;;;7.84;84.10;98542.02;102357;1290;75438;-21
2022/12/27 07:32:39;;;;;;;13.30;7.70;;;;;;;7.94;83.15;98538.55;102391;1297;75771;-21
2022/12/27 07:35:06;;;;;;;12.90;8.00;;;;;;;7.69;83.30;98538.90;102386;1298;73194;-21
2022/12/27 07:37:36;;;;;;;14.10;8.60;;;;;;;7.46;84.00;98534.60;102367;1298;62084;-21
2022/12/27 07:40:04;;;;;;;12.80;7.50;;;;;;;7.25;84.54;98528.75;102397;1298;61850;-21
2022/12/27 07:42:31;;;;;;;13.30;6.60;;;;;;;7.25;85.28;98521.86;102386;1299;75467;-25
2022/12/27 07:44:58;;;;;;;12.10;7.30;;;;;;;7.83;84.38;98514.69;102368;1298;75578;-25
2022/12/27 07:47:25;;;;;;;12.30;8.10;;;;;;;8.01;83.14;98523.21;102343;1298;74279;-24
2022/12/27 07:49:52;;;;;;;12.00;7.30;;;;;;;7.90;82.93;98526.71;102374;1298;61828;-24
2022/12/27 07:52:20;;;;;;;10.70;6.80;;;;;;;7.70;83.45;98528.06;102388;1298;61882;-24
2022/12/27 07:54:47;;;;;;;12.90;7.40;;;;;;;7.49;84.16;98529.14;102411;1298;75138;-24
2022/12/27 07:57:14;;;;;;;11.60;6.30;;;;;;;7.38;84.99;98528.45;102384;1297;75805;-22
2022/12/27 07:59:41;;;;;;;12.10;7.10;;;;;;;7.85;83.80;98524.83;102381;1298;74258;-22
2022/12/27 08:02:08;;;;;;;10.10;7.20;;;;;;;8.13;82.85;98522.35;102246;1291;61167;-22
2022/12/27 08:04:37;;;;;;;12.60;7.90;;;;;;;8.03;82.50;98513.05;102255;1298;61716;-22
2022/12/27 08:07:11;;;;;;;13.10;7.70;;;;;;;7.83;83.03;98510.64;102333;1299;75480;-21
2022/12/27 08:09:38;;;;;;;11.10;7.00;;;;;;;7.63;83.55;98508.94;102294;1298;75788;-21
2022/12/27 08:12:06;;;;;;;11.60;6.50;;;;;;;7.45;84.25;98504.23;102321;1291;74223;-22
2022/12/27 08:14:34;;;;;;;10.80;6.50;;;;;;;7.86;83.86;98505.80;102257;1295;61722;-22
2022/12/27 08:17:07;;;;;;;14.40;7.80;;;;;;;8.27;82.49;98513.79;102298;1298;61807;-22
2022/12/27 08:19:34;;;;;;;11.70;6.70;;;;;;;8.23;81.71;98528.98;102377;1299;74639;-22
2022/12/27 08:22:04;;;;;;;11.00;6.80;;;;;;;7.90;82.00;98530.88;102341;1297;75866;-22
2022/12/27 08:24:31;;;;;;;13.40;8.40;;;;;;;7.54;83.21;98534.69;102348;1298;74191;-22
2022/12/27 08:26:59;;;;;;;13.30;7.00;;;;;;;7.24;84.74;98540.22;102298;1290;63348;-22
2022/12/27 08:29:26;;;;;;;11.40;6.80;;;;;;;7.46;84.72;98541.34;102316;1291;61048;-22
2022/12/27 08:31:53;;;;;;;11.80;6.10;;;;;;;7.50;83.71;98534.95;102395;1298;75402;-22
2022/12/27 08:34:20;;;;;;;9.80;7.30;;;;;;;7.42;84.08;98543.67;102317;1297;75683;-22
2022/12/27 08:36:51;;;;;;;13.20;7.50;;;;;;;7.22;84.64;98541.89;102340;1292;73907;-22
2022/12/27 08:39:23;;;;;;;9.60;5.80;;;;;;;6.92;85.77;98531.39;102332;1292;61242;-22
2022/12/27 08:41:52;;;;;;;10.20;6.30;;;;;;;7.04;86.22;98531.20;102305;1297;61774;-22
2022/12/27 08:44:20;;;;;;;11.80;7.00;;;;;;;7.44;84.88;98528.20;102231;1292;74401;-22
2022/12/27 08:46:47;;;;;;;10.10;6.80;;;;;;;7.43;84.45;98530.88;102362;1298;75846;-22
2022/12/27 08:49:16;;;;;;;11.80;7.30;;;;;;;7.23;84.78;98527.48;102202;1300;73973;-26
2022/12/27 08:51:43;;;;;;;12.40;7.00;;;;;;;7.01;85.74;98525.58;102327;1298;61780;-23
2022/12/27 08:54:10;;;;;;;10.60;5.90;;;;;;;6.81;86.99;98528.70;102395;1299;61536;-24
2022/12/27 08:56:40;;;;;;;12.70;7.30;;;;;;;7.13;86.41;98531.03;102335;1298;74311;-23
2022/12/27 08:59:07;;;;;;;11.20;6.70;;;;;;;7.23;85.72;98526.48;102388;1298;76187;-24
2022/12/27 09:01:34;;;;;;;11.90;7.20;;;;;;;7.26;85.07;98520.59;102302;1296;74152;-23
2022/12/27 09:04:02;;;;;;;12.40;7.20;;;;;;;7.07;85.94;98521.63;102315;1299;61442;-23
2022/12/27 09:06:29;;;;;;;9.10;5.50;;;;;;;6.97;86.18;98525.85;102238;1298;61786;-23
2022/12/27 09:08:56;;;;;;;9.60;6.20;;;;;;;7.20;85.94;98525.17;102323;1297;74263;-23
2022/12/27 09:11:32;;;;;;;12.90;7.00;;;;;;;7.47;84.66;98532.13;102365;1296;75725;-23
2022/12/27 09:14:01;;;;;;;12.10;7.40;;;;;;;7.41;84.37;98529.23;102394;1298;74123;-22
2022/12/27 09:16:29;;;;;;;10.30;6.50;;;;;;;7.19;84.98;98521.05;102316;1298;61173;-22
2022/12/27 09:18:58;;;;;;;11.00;6.70;;;;;;;6.96;85.91;98519.90;102359;1299;61719;-22
2022/12/27 09:21:27;;;;;;;9.80;6.50;;;;;;;7.08;86.07;98523.09;102385;1291;74305;-22
2022/12/27 09:23:54;;;;;;;9.80;6.10;;;;;;;7.59;84.33;98514.41;102325;1282;74558;-23
2022/12/27 09:26:26;;;;;;;9.40;6.50;;;;;;;7.77;83.26;98512.50;102326;1298;74216;-22
2022/12/27 09:28:53;;;;;;;9.40;6.50;;;;;;;7.63;83.01;98509.11;102125;1298;61973;-22
2022/12/27 09:31:20;;;;;;;13.10;7.30;;;;;;;7.36;83.99;98508.91;102299;1290;61716;-22
2022/12/27 09:33:48;;;;;;;8.40;4.80;;;;;;;7.06;85.26;98509.64;102346;1298;75225;-23
2022/12/27 09:36:18;;;;;;;10.00;6.70;;;;;;;7.19;85.82;98504.34;102368;1290;73986;-23
2022/12/27 09:38:45;;;;;;;12.40;6.90;;;;;;;7.61;84.27;98502.20;102289;1298;72330;-23
2022/12/27 09:41:20;;;;;;;11.40;7.10;;;;;;;7.60;83.65;98504.16;102241;1299;61781;-23
2022/12/27 09:44:15;;;;;;;14.00;8.70;;;;;;;7.31;84.39;98504.13;102241;1301;61800;-23
2022/12/27 09:47:12;;;;;;;10.20;6.50;;;;;;;7.07;85.50;98500.02;102344;1296;75420;-23
2022/12/27 09:49:42;;;;;;;12.70;6.90;;;;;;;7.13;86.25;98505.68;102330;1301;76272;-24
2022/12/27 09:52:32;;;;;;;10.50;6.50;;;;;;;7.52;84.88;98503.18;102179;1298;74383;-23
2022/12/27 09:55:28;;;;;;;10.60;7.20;;;;;;;7.58;84.55;98500.02;102329;1298;62092;-23
2022/12/27 09:58:18;;;;;;;10.50;7.30;;;;;;;7.39;84.96;98496.95;102297;1299;61731;-22
2022/12/27 10:00:49;;;;;;;13.40;7.50;;;;;;;7.12;85.88;98499.15;102382;1296;75416;-22
2022/12/27 10:03:16;;;;;;;8.10;4.80;;;;;;;6.98;87.02;98492.65;102335;1294;75781;-22
2022/12/27 10:05:43;;;;;;;9.40;5.80;;;;;;;7.46;86.28;98491.08;102320;1296;74236;-22
2022/12/27 10:08:22;;;;;;;11.00;7.20;;;;;;;7.92;84.58;98488.88;102376;1291;61777;-22
2022/12/27 10:11:37;;;;;;;11.10;6.80;;;;;;;7.89;83.71;98496.20;102364;1290;62244;-22
2022/12/27 10:14:12;;;;;;;10.30;6.60;;;;;;;7.66;84.34;98491.63;102308;1299;75570;-22
2022/12/27 10:16:46;;;;;;;9.90;6.90;;;;;;;7.42;85.14;98490.33;102314;1299;75441;-22
2022/12/27 10:19:19;;;;;;;;;;;;;;;7.23;86.17;98487.64;101992;1306;71831;-22
2022/12/27 10:22:01;;;;;;;9.90;5.70;;;;;;;7.56;85.76;98490.99;102357;1295;62070;-22
2022/12/27 10:24:49;;;;;;;8.80;5.20;;;;;;;7.93;84.29;98495.22;102344;1298;61190;-23
2022/12/27 10:27:21;;;;;;;7.20;5.60;;;;;;;7.82;84.06;98497.30;102386;1297;74790;-22
2022/12/27 10:29:51;;;;;;;7.60;5.70;;;;;;;7.54;84.63;98495.80;102247;1297;76057;-22
2022/12/27 10:32:18;;;;;;;8.50;5.20;;;;;;;7.24;86.00;98493.22;102324;1301;74041;-24
2022/12/27 10:34:47;;;;;;;7.10;4.80;;;;;;;7.12;87.48;98492.91;102340;1299;62436;-23
2022/12/27 10:37:15;;;;;;;6.80;4.20;;;;;;;7.54;86.02;98488.74;102331;1300;61859;-24
2022/12/27 10:39:42;;;;;;;6.80;4.20;;;;;;;7.62;84.79;98482.20;102385;1298;75316;-23
2022/12/27 10:42:24;;;;;;;7.50;4.00;;;;;;;7.34;84.90;98479.58;102369;1299;76029;-23
2022/12/27 10:44:52;;;;;;;4.00;2.60;;;;;;;6.92;85.39;98474.23;102259;1299;74200;-23
2022/12/27 10:47:19;;;;;;;4.50;3.00;;;;;;;6.82;85.36;98459.67;102342;1292;63380;-23
2022/12/27 10:50:01;;;;;;;2.90;2.50;;;;;;;6.88;83.34;98456.46;102291;1302;61690;-23
2022/12/27 10:52:30;;;;;;;3.80;2.50;;;;;;;6.99;82.70;98487.55;102228;1295;75458;-22
2022/12/27 10:54:58;;;;;;;3.90;1.90;;;;;;;6.77;82.97;98475.91;102383;1299;75526;-22
2022/12/27 10:57:27;;;;;;;3.20;2.00;;;;;;;6.54;83.72;98474.84;102373;1291;74232;-23
2022/12/27 11:00:22;;;;;;;2.80;1.90;;;;;;;6.59;83.89;98489.11;102283;1298;61843;-24
2022/12/27 11:02:49;;;;;;;;;;;;;;;6.71;82.82;98482.90;102338;1298;61679;-23
2022/12/27 11:05:24;;;;;;;2.80;1.70;;;;;;;6.59;82.27;98486.72;102350;1298;73788;-27
2022/12/27 11:07:51;;;;;;;3.70;2.10;;;;;;;6.36;82.81;98485.40;102351;1299;73717;-28
2022/12/27 11:10:24;;;;;;;2.30;1.90;;;;;;;6.11;83.78;98490.83;102355;1298;74271;-25
2022/12/27 11:19:02;;;;;;;3.60;2.20;;;;;;;6.18;83.58;98499.48;99295;1328;600168;-29
2022/12/27 11:21:29;;;;;;;2.30;1.80;;;;;;;6.00;83.41;98498.17;101329;1307;61286;-24
2022/12/27 11:24:00;;;;;;;1.60;1.20;;;;;;;5.98;84.06;98511.52;101185;1307;62517;-24
2022/12/27 11:26:40;;;;;;;2.70;1.70;;;;;;;6.34;82.25;98512.32;101113;1314;74587;-24
2022/12/27 11:29:14;;;;;;;4.00;2.10;;;;;;;6.15;82.55;98504.15;100956;1312;76845;-24
2022/12/27 11:31:46;;;;;;;3.00;1.70;;;;;;;5.98;83.45;98516.55;99793;1317;1414653;-24
2022/12/27 11:34:16;;;;;;;2.80;1.90;;;;;;;5.87;84.04;98512.84;101009;1311;61639;-24
2022/12/27 11:36:45;;;;;;;1.80;1.30;;;;;;;6.08;84.11;98523.80;101265;1308;61589;-24
2022/12/27 11:39:39;;;;;;;2.20;1.70;;;;;;;6.28;83.00;98525.11;101124;1307;74540;-24
2022/12/27 11:42:31;;;;;;;2.10;1.40;;;;;;;6.03;82.58;98517.25;101382;1307;76331;-24
2022/12/27 11:45:03;;;;;;;2.30;1.80;;;;;;;5.90;83.68;98532.30;101213;1309;73944;-24
2022/12/27 11:47:38;;;;;;;3.10;1.60;;;;;;;5.88;83.76;98534.84;101328;1311;63008;-24
2022/12/27 11:50:05;;;;;;;2.00;1.50;;;;;;;6.10;82.80;98528.29;101379;1305;62894;-24
2022/12/27 11:53:05;;;;;;;1.80;1.50;;;;;;;6.25;82.11;98532.98;101221;1305;75613;-24
2022/12/27 11:55:51;;;;;;;2.00;1.50;;;;;;;5.96;82.72;98546.48;101341;1310;76825;-24
2022/12/27 11:58:30;;;;;;;1.50;1.30;;;;;;;5.78;83.49;98557.33;101334;1314;75152;-24
2022/12/27 12:01:16;;;;;;;2.60;1.60;;;;;;;5.69;83.73;98559.58;101305;1312;63520;-23
2022/12/27 12:04:12;;;;;;;0.70;0.70;;;;;;;5.84;82.27;98563.31;101496;1307;61620;-23
2022/12/27 12:06:47;;;;;;;1.30;0.80;;;;;;;5.60;80.48;98553.24;101495;1310;74324;-24
2022/12/27 12:09:42;;;;;;;1.50;1.10;;;;;;;5.42;81.17;98574.81;101505;1309;76723;-24
2022/12/27 12:12:28;;;;;;;1.10;0.80;;;;;;;5.19;82.30;98585.62;101373;1311;75067;-24
2022/12/27 12:15:01;;;;;;;1.70;1.00;;;;;;;5.46;81.30;98594.33;101407;1307;63070;-24
2022/12/27 12:17:51;;;;;;;2.30;0.60;;;;;;;5.34;79.70;98588.28;101337;1311;62602;-25
2022/12/27 12:20:30;;;;;;;0.90;0.70;;;;;;;5.23;79.72;98605.99;101348;1311;75670;-23
2022/12/27 12:23:26;;;;;;;0.80;0.70;;;;;;;4.94;80.44;98607.71;101337;1303;75693;-23
2022/12/27 12:26:09;;;;;;;0.70;0.60;;;;;;;4.75;81.78;98637.55;101424;1307;73187;-24
2022/12/27 12:28:59;;;;;;;1.00;0.60;;;;;;;4.98;80.42;98629.14;101573;1307;61916;-24
2022/12/27 12:31:42;;;;;;;1.50;0.70;;;;;;;4.93;79.54;98637.25;101501;1303;61507;-25
2022/12/27 12:34:30;;;;;;;1.00;0.70;;;;;;;4.81;80.20;98645.05;101412;1312;74627;-25
2022/12/27 12:37:09;;;;;;;1.20;0.50;;;;;;;4.56;81.22;98645.02;101315;1304;77104;-25
2022/12/27 12:40:10;;;;;;;1.30;0.60;;;;;;;4.67;81.07;98643.68;101272;1305;75297;-25
2022/12/27 12:42:53;;;;;;;0.80;0.60;;;;;;;4.81;80.12;98649.52;101591;1302;62628;-25
2022/12/27 12:45:42;;;;;;;0.50;0.50;;;;;;;4.71;80.53;98653.58;101354;1309;62781;-25
2022/12/27 12:48:21;;;;;;;0.60;0.40;;;;;;;4.49;81.41;98658.55;101271;1310;73873;-25
2022/12/27 12:51:24;;;;;;;0.70;0.40;;;;;;;4.50;81.29;98664.16;101355;1311;75024;-25
2022/12/27 12:53:59;;;;;;;1.10;0.80;;;;;;;4.73;80.62;98677.19;101470;1312;75279;-25
2022/12/27 12:56:45;;;;;;;0.60;0.60;;;;;;;4.58;80.61;98673.68;101324;1315;61911;-25
2022/12/27 12:59:25;;;;;;;1.00;0.50;;;;;;;4.34;81.39;98674.92;101651;1301;62074;-25
2022/12/27 13:02:19;;;;;;;0.50;0.50;;;;;;;4.23;82.36;98684.92;101370;1301;74275;-25
2022/12/27 13:04:55;;;;;;;0.60;0.60;;;;;;;4.43;81.92;98683.33;101347;1311;76730;-23
2022/12/27 13:07:40;;;;;;;0.50;0.40;;;;;;;4.50;80.91;98667.80;101418;1302;75192;-23
2022/12/27 13:10:48;;;;;;;0.60;0.50;;;;;;;4.29;81.65;98683.52;101452;1308;61871;-23
2022/12/27 13:13:25;;;;;;;2.00;0.60;;;;;;;4.06;81.95;98677.15;101206;1309;61440;-24
2022/12/27 13:16:11;;;;;;;0.60;0.60;;;;;;;4.08;82.04;98683.58;101331;1312;74889;-24
2022/12/27 13:18:53;;;;;;;0.80;0.50;;;;;;;4.30;81.19;98696.36;101362;1307;75951;-23
2022/12/27 13:21:42;;;;;;;1.20;0.80;;;;;;;4.36;81.17;98707.64;101224;1308;74275;-24
2022/12/27 13:24:16;;;;;;;2.10;0.50;;;;;;;4.09;82.28;98712.35;101353;1311;63034;-24
2022/12/27 13:27:01;;;;;;;1.10;0.60;;;;;;;3.96;83.52;98718.64;101420;1311;62667;-24
2022/12/27 13:29:37;;;;;;;0.80;0.60;;;;;;;4.08;83.44;98707.59;101478;1308;75745;-24
2022/12/27 13:32:26;;;;;;;1.10;0.80;;;;;;;4.29;82.95;98717.88;101353;1305;75779;-24
2022/12/27 13:35:05;;;;;;;0.80;0.70;;;;;;;4.30;82.62;98710.11;101441;1304;75012;-24
2022/12/27 13:37:51;;;;;;;1.50;0.70;;;;;;;4.03;83.40;98706.85;101310;1303;61167;-25
2022/12/27 13:41:12;;;;;;;0.90;0.80;;;;;;;4.00;84.19;98724.77;101263;1311;62636;-24